Time;durP1;ratioP1;P1;durP2;ratioP2;P2;SDS_P1;SDS_P2;PMS_P1;PMS_P2;Temp;Humidity;BMP_temperature;BMP_pressure;BME280_temperature;BME280_humidity;BME280_pressure;Samples;Min_cycle;Max_cycle;Signal;HPM_P1;HPM_P2
2023/01/05 00:01:46;;;;;;;3.67;0.50;;;10.70;99.90;;;;;;5089226;28;20404;-53
2023/01/05 00:04:12;;;;;;;3.63;0.40;;;10.70;99.90;;;;;;5090081;28;20481;-53
2023/01/05 00:06:38;;;;;;;3.70;0.40;;;10.70;99.90;;;;;;5088894;28;20406;-53
2023/01/05 00:09:05;;;;;;;3.60;0.40;;;10.70;99.90;;;;;;5090098;28;20383;-53
2023/01/05 00:22:37;;;;;;;4.80;0.43;;;11.00;1.00;;;;;;5089474;28;20368;-58
2023/01/05 00:25:06;;;;;;;4.55;0.30;;;11.10;1.00;;;;;;5089390;28;20405;-54
2023/01/05 00:27:32;;;;;;;3.80;0.40;;;11.00;1.00;;;;;;5089384;28;20382;-58
2023/01/05 00:29:58;;;;;;;8.88;0.47;;;11.00;1.00;;;;;;5089710;28;20414;-54
2023/01/05 00:32:25;;;;;;;3.70;0.30;;;10.90;1.00;;;;;;5089686;28;20386;-54
2023/01/05 00:34:56;;;;;;;4.00;0.35;;;10.90;1.00;;;;;;5088818;28;20393;-54
2023/01/05 00:37:23;;;;;;;3.90;0.50;;;10.90;1.00;;;;;;5075845;28;20371;-53
2023/01/05 00:39:49;;;;;;;3.60;0.32;;;10.90;1.00;;;;;;5072268;28;20424;-54
2023/01/05 00:42:15;;;;;;;3.70;0.40;;;11.10;1.00;;;;;;5073626;28;20403;-53
2023/01/05 00:44:41;;;;;;;3.60;0.30;;;11.00;1.00;;;;;;5072679;28;20815;-53
2023/01/05 00:47:06;;;;;;;3.80;0.40;;;11.00;1.00;;;;;;5073673;28;20391;-53
2023/01/05 00:49:32;;;;;;;3.90;0.30;;;11.00;1.00;;;;;;5073101;28;20391;-57
2023/01/05 00:51:58;;;;;;;3.70;0.40;;;10.90;1.00;;;;;;5073652;28;20418;-54
2023/01/05 00:54:23;;;;;;;3.50;0.30;;;11.00;1.00;;;;;;5073386;28;20749;-54
2023/01/05 00:56:49;;;;;;;3.72;0.40;;;11.00;1.00;;;;;;5072022;28;20376;-53
2023/01/05 00:59:15;;;;;;;3.60;0.37;;;11.20;1.00;;;;;;5073551;28;20781;-53
2023/01/05 01:01:44;;;;;;;3.60;0.20;;;11.10;1.00;;;;;;5072962;28;20812;-54
2023/01/05 01:04:09;;;;;;;3.90;0.35;;;11.10;1.00;;;;;;5073184;28;20387;-53
2023/01/05 01:06:35;;;;;;;3.60;0.30;;;11.50;1.00;;;;;;5080647;28;20418;-54
2023/01/05 01:09:01;;;;;;;3.60;0.30;;;11.10;1.00;;;;;;5093430;28;20373;-53
2023/01/05 01:11:26;;;;;;;3.50;0.20;;;11.00;1.00;;;;;;5093421;28;20763;-54
2023/01/05 01:13:52;;;;;;;3.50;0.30;;;11.00;1.00;;;;;;5092496;28;20374;-54
2023/01/05 01:16:17;;;;;;;3.70;0.40;;;11.00;1.00;;;;;;5092452;28;20392;-53
2023/01/05 01:18:43;;;;;;;3.90;0.30;;;11.10;1.00;;;;;;5092546;28;20381;-54
2023/01/05 01:21:09;;;;;;;3.70;0.30;;;11.10;1.00;;;;;;5093452;28;20416;-53
2023/01/05 01:23:38;;;;;;;3.50;0.20;;;11.10;1.00;;;;;;5092350;28;20416;-54
2023/01/05 01:26:10;;;;;;;3.50;0.30;;;11.10;1.00;;;;;;5093020;28;20448;-54
2023/01/05 01:28:35;;;;;;;3.70;0.30;;;11.10;1.00;;;;;;5091856;28;20820;-54
2023/01/05 01:31:01;;;;;;;4.10;0.40;;;11.10;93.50;;;;;;5092972;28;20398;-54
2023/01/05 01:33:28;;;;;;;3.50;0.20;;;11.10;1.00;;;;;;5092558;28;20933;-54
2023/01/05 01:35:54;;;;;;;3.40;0.20;;;11.20;1.00;;;;;;5092016;28;20818;-54
2023/01/05 01:38:20;;;;;;;3.60;0.30;;;11.20;1.00;;;;;;5092628;28;20386;-54
2023/01/05 01:40:47;;;;;;;3.70;0.30;;;11.20;1.00;;;;;;5092104;28;20412;-53
2023/01/05 01:43:17;;;;;;;4.50;0.30;;;11.20;1.40;;;;;;5092995;28;20378;-53
2023/01/05 01:45:43;;;;;;;3.53;0.23;;;11.30;1.00;;;;;;5091656;28;20910;-54
2023/01/05 01:48:16;;;;;;;3.60;0.40;;;11.20;1.00;;;;;;5092698;28;20495;-54
2023/01/05 01:50:49;;;;;;;3.50;0.30;;;11.20;1.00;;;;;;5091030;28;20393;-54
2023/01/05 01:53:24;;;;;;;3.40;0.20;;;11.20;99.90;;;;;;5092583;28;20378;-54
2023/01/05 01:55:51;;;;;;;3.58;0.30;;;11.10;99.90;;;;;;5091787;28;20378;-54
2023/01/05 01:58:18;;;;;;;3.60;0.30;;;11.20;99.90;;;;;;5092391;28;20731;-51
2023/01/05 02:00:45;;;;;;;3.80;0.30;;;11.30;1.00;;;;;;5091564;28;20378;-52
2023/01/05 02:03:11;;;;;;;3.60;0.30;;;11.40;1.00;;;;;;5092277;28;20489;-51
2023/01/05 02:05:37;;;;;;;3.70;0.30;;;11.30;1.00;;;;;;5091550;28;20405;-54
2023/01/05 02:08:10;;;;;;;4.80;0.40;;;11.20;1.00;;;;;;5091837;28;20390;-53
2023/01/05 02:10:54;;;;;;;3.50;0.20;;;11.30;39.20;;;;;;5091502;28;20383;-51
2023/01/05 02:13:39;;;;;;;3.50;0.20;;;11.30;1.00;;;;;;5092566;28;20481;-52
2023/01/05 02:16:20;;;;;;;3.50;0.20;;;11.40;10.00;;;;;;5092615;28;20389;-51
2023/01/05 02:19:22;;;;;;;3.50;0.20;;;11.40;1.00;;;;;;5091356;28;20413;-52
2023/01/05 02:22:13;;;;;;;3.50;0.20;;;11.30;1.00;;;;;;5091646;28;20858;-53
2023/01/05 02:25:11;;;;;;;3.50;0.20;;;11.40;1.00;;;;;;5051993;28;20395;-51
2023/01/05 02:27:52;;;;;;;3.70;0.30;;;11.40;1.00;;;;;;5071190;28;20460;-52
2023/01/05 02:30:36;;;;;;;3.60;0.30;;;11.50;1.00;;;;;;5091795;28;20370;-56
2023/01/05 02:33:24;;;;;;;3.50;0.23;;;11.50;1.00;;;;;;5091909;28;20375;-53
2023/01/05 02:36:18;;;;;;;3.65;0.20;;;11.50;1.00;;;;;;5090516;28;20513;-54
2023/01/05 02:38:50;;;;;;;3.60;0.30;;;11.50;1.00;;;;;;5090757;28;20378;-51
2023/01/05 02:41:25;;;;;;;3.60;0.30;;;11.60;99.90;;;;;;5091584;28;20385;-51
2023/01/05 02:43:50;;;;;;;3.50;0.20;;;11.60;99.90;;;;;;5072778;28;20475;-51
2023/01/05 02:46:17;;;;;;;3.60;0.30;;;11.60;99.90;;;;;;5091148;28;20437;-52
2023/01/05 02:48:44;;;;;;;3.60;0.25;;;11.60;1.00;;;;;;5090827;28;20388;-53
2023/01/05 02:51:17;;;;;;;3.60;0.30;;;11.50;99.90;;;;;;5091227;28;20763;-51
2023/01/05 02:53:48;;;;;;;3.50;0.20;;;11.60;99.90;;;;;;5090737;28;20381;-53
2023/01/05 02:56:28;;;;;;;3.60;0.30;;;11.70;99.90;;;;;;5091544;28;20405;-51
2023/01/05 02:59:20;;;;;;;3.80;0.30;;;11.70;99.90;;;;;;5090351;28;20382;-51
2023/01/05 03:01:53;;;;;;;3.50;0.22;;;11.70;99.90;;;;;;5078758;28;20382;-51
2023/01/05 03:04:24;;;;;;;3.60;0.20;;;11.80;99.90;;;;;;5090839;28;20390;-51
2023/01/05 03:07:11;;;;;;;3.60;0.20;;;11.90;1.00;;;;;;5089772;28;20402;-51
2023/01/05 03:09:39;;;;;;;3.50;0.20;;;11.90;99.90;;;;;;5090203;28;20390;-51
2023/01/05 03:15:19;;;;;;;3.50;0.20;;;12.00;99.90;;;;;;5090616;28;20457;-53
2023/01/05 03:17:57;;;;;;;3.50;0.20;;;12.00;99.90;;;;;;5090268;28;20382;-51
2023/01/05 03:20:29;;;;;;;3.50;0.20;;;11.90;1.00;;;;;;5090917;28;20388;-51
2023/01/05 03:37:25;;;;;;;3.80;0.20;;;12.00;1.00;;;;;;5076259;28;20391;-54
2023/01/05 03:39:50;;;;;;;3.50;0.20;;;11.90;99.90;;;;;;5069610;28;21221;-51
2023/01/05 03:42:17;;;;;;;3.50;0.20;;;12.20;1.00;;;;;;5070335;28;20386;-57
2023/01/05 03:44:44;;;;;;;3.60;0.20;;;12.30;1.00;;;;;;5069461;28;20367;-51
2023/01/05 03:47:11;;;;;;;4.50;0.30;;;12.40;99.90;;;;;;5070182;28;20402;-53
2023/01/05 03:49:37;;;;;;;3.60;0.20;;;12.50;99.90;;;;;;5069397;28;20787;-58
2023/01/05 03:52:03;;;;;;;3.70;0.20;;;12.50;99.90;;;;;;5070179;28;20387;-53
2023/01/05 03:54:28;;;;;;;3.60;0.20;;;12.40;1.00;;;;;;5069890;28;20508;-53
2023/01/05 03:56:54;;;;;;;3.80;0.20;;;12.30;1.00;;;;;;5069611;28;20882;-53
2023/01/05 03:59:20;;;;;;;3.60;0.20;;;11.50;1.00;;;;;;5070346;28;21024;-51
2023/01/05 04:01:45;;;;;;;3.90;0.20;;;12.40;1.00;;;;;;5068547;28;20371;-51
2023/01/05 04:04:11;;;;;;;3.50;0.20;;;12.40;1.00;;;;;;5069864;28;20939;-51
2023/01/05 04:06:37;;;;;;;3.60;0.20;;;12.40;99.90;;;;;;5077314;28;20445;-56
2023/01/05 04:09:02;;;;;;;3.60;0.20;;;12.30;1.00;;;;;;5089730;28;20425;-51
2023/01/05 04:11:28;;;;;;;3.60;0.20;;;12.30;99.90;;;;;;5090215;28;20413;-51
2023/01/05 04:13:53;;;;;;;3.60;0.20;;;12.30;99.90;;;;;;5089105;28;20664;-53
2023/01/05 04:16:19;;;;;;;4.00;0.20;;;12.30;1.00;;;;;;5089872;28;20382;-53
2023/01/05 04:18:45;;;;;;;3.50;0.20;;;12.30;1.00;;;;;;5088709;28;20414;-55
2023/01/05 04:21:11;;;;;;;3.60;0.20;;;12.30;99.90;;;;;;5089913;28;20374;-53
2023/01/05 04:23:36;;;;;;;3.60;0.20;;;12.20;1.00;;;;;;5089139;28;20913;-58
2023/01/05 04:26:02;;;;;;;3.60;0.20;;;12.20;1.00;;;;;;5071835;28;20831;-53
2023/01/05 04:28:28;;;;;;;3.80;0.20;;;12.20;1.00;;;;;;5089778;28;20444;-53
2023/01/05 04:30:54;;;;;;;3.60;0.20;;;12.20;1.00;;;;;;5089139;28;21017;-53
2023/01/05 04:33:21;;;;;;;3.60;0.30;;;12.30;99.90;;;;;;5089616;28;20759;-53
2023/01/05 04:35:47;;;;;;;3.60;0.20;;;12.20;99.90;;;;;;5088746;28;20410;-53
2023/01/05 04:38:13;;;;;;;3.60;0.30;;;12.30;99.90;;;;;;5089154;28;20891;-53
2023/01/05 04:40:39;;;;;;;4.00;0.20;;;12.30;14.50;;;;;;5089203;28;20374;-53
2023/01/05 04:43:05;;;;;;;3.50;0.20;;;12.30;86.90;;;;;;5089956;28;20858;-53
2023/01/05 04:45:31;;;;;;;3.60;0.28;;;12.30;99.90;;;;;;5089587;28;20401;-53
2023/01/05 04:47:56;;;;;;;3.50;0.20;;;12.30;99.90;;;;;;5088833;28;20379;-53
2023/01/05 04:50:22;;;;;;;3.50;0.20;;;12.20;1.00;;;;;;5089746;28;20366;-53
2023/01/05 04:52:47;;;;;;;3.50;0.20;;;12.20;1.00;;;;;;5088614;28;20382;-53
2023/01/05 04:55:13;;;;;;;3.50;0.20;;;12.20;1.00;;;;;;5089452;28;20385;-53
2023/01/05 04:57:39;;;;;;;3.50;0.20;;;12.10;99.90;;;;;;5088398;28;20384;-54
2023/01/05 05:00:05;;;;;;;3.50;0.30;;;12.00;99.90;;;;;;5089493;28;20382;-53
2023/01/05 05:02:31;;;;;;;3.40;0.20;;;11.90;1.00;;;;;;5089598;28;20378;-53
2023/01/05 05:04:57;;;;;;;3.70;0.30;;;11.80;1.00;;;;;;5088495;28;20397;-53
2023/01/05 05:07:23;;;;;;;3.40;0.20;;;11.60;1.00;;;;;;5089362;28;20412;-53
2023/01/05 05:09:48;;;;;;;3.40;0.20;;;11.60;1.00;;;;;;5089155;28;20465;-53
2023/01/05 05:12:14;;;;;;;3.40;0.20;;;11.60;1.00;;;;;;5089914;28;20712;-53
2023/01/05 05:14:40;;;;;;;3.30;0.20;;;11.50;1.00;;;;;;5088915;28;20378;-53
2023/01/05 05:17:06;;;;;;;3.60;0.20;;;11.30;1.00;;;;;;5089729;28;20374;-53
2023/01/05 05:19:31;;;;;;;3.30;0.20;;;11.30;1.00;;;;;;5089646;28;21026;-53
2023/01/05 05:21:57;;;;;;;3.30;0.20;;;11.30;1.00;;;;;;5070092;28;20385;-53
2023/01/05 05:24:22;;;;;;;3.30;0.20;;;11.20;1.00;;;;;;5090438;28;20373;-54
2023/01/05 05:26:48;;;;;;;3.50;0.30;;;11.10;1.00;;;;;;5092733;28;20755;-52
2023/01/05 05:29:14;;;;;;;3.20;0.20;;;11.00;1.00;;;;;;5093796;28;20393;-53
2023/01/05 05:31:39;;;;;;;3.30;0.20;;;11.10;1.00;;;;;;5092351;28;20461;-53
2023/01/05 05:34:05;;;;;;;3.33;0.20;;;11.00;1.00;;;;;;5093106;28;20386;-54
2023/01/05 05:36:31;;;;;;;4.90;0.30;;;11.00;1.00;;;;;;5093239;28;20743;-53
2023/01/05 05:38:57;;;;;;;3.20;0.20;;;11.00;1.00;;;;;;5091907;28;20370;-53
2023/01/05 05:41:24;;;;;;;3.40;0.30;;;11.00;1.00;;;;;;5092782;28;20387;-53
2023/01/05 05:43:50;;;;;;;3.40;0.40;;;10.90;1.00;;;;;;5092251;28;20382;-53
2023/01/05 05:46:15;;;;;;;3.40;0.40;;;11.00;1.00;;;;;;5092993;28;20405;-52
2023/01/05 05:48:41;;;;;;;3.95;0.30;;;11.00;1.00;;;;;;5092368;28;20386;-53
2023/01/05 05:51:06;;;;;;;3.47;0.33;;;10.90;1.00;;;;;;5093445;28;20398;-53
2023/01/05 05:53:32;;;;;;;3.90;0.30;;;10.90;1.00;;;;;;5092490;28;20839;-53
2023/01/05 05:55:58;;;;;;;3.50;0.50;;;10.90;1.00;;;;;;5091975;28;20378;-53
2023/01/05 05:58:23;;;;;;;11.98;0.60;;;10.90;1.00;;;;;;5093035;28;20386;-53
2023/01/05 06:00:49;;;;;;;4.10;0.60;;;10.90;1.00;;;;;;5091527;28;20382;-53
2023/01/05 06:03:15;;;;;;;3.33;0.30;;;11.00;1.00;;;;;;5093027;28;20374;-53
2023/01/05 06:05:40;;;;;;;4.30;0.40;;;10.90;1.00;;;;;;5091778;28;20778;-53
2023/01/05 06:08:06;;;;;;;8.20;1.00;;;10.90;1.00;;;;;;5092130;28;20859;-53
2023/01/05 06:10:31;;;;;;;3.87;0.40;;;10.90;1.00;;;;;;5092365;28;20382;-53
2023/01/05 06:12:57;;;;;;;4.30;0.60;;;10.90;99.90;;;;;;5091371;28;20370;-53
2023/01/05 06:15:23;;;;;;;5.00;0.57;;;10.90;1.00;;;;;;5092356;28;20382;-53
2023/01/05 06:17:49;;;;;;;5.80;0.65;;;10.90;1.00;;;;;;5091629;28;20847;-53
2023/01/05 06:20:15;;;;;;;5.47;0.50;;;10.90;99.90;;;;;;5092409;28;20386;-53
2023/01/05 06:22:42;;;;;;;4.38;0.60;;;10.90;1.00;;;;;;5091057;28;20805;-54
2023/01/05 06:25:08;;;;;;;4.10;0.50;;;10.80;1.00;;;;;;5092269;28;20509;-53
2023/01/05 06:27:34;;;;;;;6.70;1.00;;;10.90;1.00;;;;;;5073854;28;20484;-53
2023/01/05 06:30:00;;;;;;;6.40;1.00;;;10.90;1.00;;;;;;5091001;28;20494;-53
2023/01/05 06:32:26;;;;;;;4.47;0.70;;;10.80;1.00;;;;;;5091981;28;20370;-54
2023/01/05 06:34:51;;;;;;;5.00;0.90;;;10.80;1.00;;;;;;5090920;28;20402;-53
2023/01/05 06:37:17;;;;;;;5.28;0.63;;;10.80;99.90;;;;;;5091898;28;20394;-52
2023/01/05 06:39:42;;;;;;;8.00;1.30;;;10.90;1.00;;;;;;5090996;28;20401;-53
2023/01/05 06:42:08;;;;;;;4.38;0.70;;;10.90;1.00;;;;;;5091989;28;20374;-52
2023/01/05 06:44:34;;;;;;;4.47;0.90;;;11.00;1.00;;;;;;5091924;28;20929;-53
2023/01/05 06:47:00;;;;;;;5.70;0.65;;;11.10;99.90;;;;;;5090075;28;20410;-55
2023/01/05 06:49:25;;;;;;;4.33;1.00;;;11.00;99.90;;;;;;5091662;28;20762;-53
2023/01/05 06:51:51;;;;;;;4.70;1.00;;;11.00;1.00;;;;;;5091031;28;20406;-52
2023/01/05 06:54:16;;;;;;;6.07;0.80;;;11.00;99.90;;;;;;5091417;28;20382;-56
2023/01/05 06:56:42;;;;;;;5.70;0.90;;;10.90;99.90;;;;;;5090649;28;20424;-57
2023/01/05 06:59:09;;;;;;;3.80;0.60;;;11.20;99.90;;;;;;5091458;28;20383;-56
2023/01/05 07:01:35;;;;;;;5.60;0.60;;;11.30;99.90;;;;;;5091514;28;20457;-56
2023/01/05 07:04:00;;;;;;;4.43;0.60;;;11.40;99.90;;;;;;5080319;28;20475;-57
2023/01/05 07:06:26;;;;;;;6.68;0.90;;;11.50;23.70;;;;;;5066765;28;20753;-56
2023/01/05 07:08:51;;;;;;;7.03;0.97;;;11.50;1.00;;;;;;5070204;28;20380;-56
2023/01/05 07:11:17;;;;;;;4.70;0.80;;;11.60;1.00;;;;;;5070838;28;20388;-57
2023/01/05 07:13:47;;;;;;;5.50;0.80;;;11.50;1.00;;;;;;5052186;28;20406;-57
2023/01/05 07:16:13;;;;;;;5.60;1.23;;;11.40;1.00;;;;;;5071188;28;20384;-57
2023/01/05 07:18:38;;;;;;;8.70;1.23;;;11.40;99.90;;;;;;5070418;28;20414;-60
2023/01/05 07:21:04;;;;;;;4.50;0.70;;;11.40;1.00;;;;;;5070185;28;20391;-56
2023/01/05 07:23:30;;;;;;;5.53;0.70;;;11.30;94.90;;;;;;5054187;28;20738;-53
2023/01/05 07:25:59;;;;;;;4.65;1.08;;;11.30;27.30;;;;;;5049706;28;20463;-53
2023/01/05 07:28:24;;;;;;;7.30;0.80;;;11.10;99.90;;;;;;5050679;28;20452;-53
2023/01/05 07:30:51;;;;;;;7.73;1.10;;;11.10;99.90;;;;;;5049770;28;20874;-52
2023/01/05 07:33:17;;;;;;;8.50;0.93;;;11.00;99.90;;;;;;5050346;28;20378;-53
2023/01/05 07:35:43;;;;;;;5.80;1.00;;;11.00;99.90;;;;;;5051009;28;20486;-53
2023/01/05 07:38:08;;;;;;;5.15;1.13;;;11.00;99.90;;;;;;5090612;28;20385;-53
2023/01/05 07:40:35;;;;;;;7.63;1.10;;;10.90;99.90;;;;;;5068536;28;20890;-53
2023/01/05 07:43:00;;;;;;;4.57;1.00;;;10.90;99.90;;;;;;5060077;28;20380;-53
2023/01/05 07:45:26;;;;;;;4.47;1.00;;;11.00;99.90;;;;;;5070215;28;20531;-54
2023/01/05 07:47:51;;;;;;;5.53;1.00;;;10.90;99.90;;;;;;5068828;28;20474;-53
2023/01/05 07:50:17;;;;;;;7.25;1.10;;;10.90;99.90;;;;;;5070015;28;20383;-53
2023/01/05 07:52:43;;;;;;;5.80;1.00;;;10.90;99.90;;;;;;5068925;28;20380;-54
2023/01/05 07:55:08;;;;;;;4.60;0.85;;;11.00;99.90;;;;;;5070132;28;20419;-53
2023/01/05 07:57:34;;;;;;;5.30;1.20;;;11.00;99.90;;;;;;5068366;28;20477;-53
2023/01/05 08:00:00;;;;;;;4.75;0.70;;;11.00;99.90;;;;;;5059076;28;20385;-54
2023/01/05 08:02:26;;;;;;;7.00;1.00;;;11.00;99.90;;;;;;5063433;28;20889;-54
2023/01/05 08:04:52;;;;;;;7.78;1.10;;;11.00;99.90;;;;;;5057773;28;20909;-54
2023/01/05 08:07:18;;;;;;;5.78;1.08;;;11.10;1.00;;;;;;5077792;28;20417;-54
2023/01/05 08:13:58;;;;;;;9.50;1.50;;;11.10;1.00;;;;;;5065811;28;20410;-54
2023/01/05 08:15:21;;;;;;;5.65;0.98;;;11.10;1.00;;;;;;5069426;28;20431;-54
2023/01/05 08:17:46;;;;;;;8.00;1.00;;;11.20;99.90;;;;;;5068508;28;20416;-54
2023/01/05 08:20:12;;;;;;;9.63;1.23;;;11.20;99.90;;;;;;5069801;28;20372;-53
2023/01/05 08:22:38;;;;;;;5.80;1.00;;;11.20;1.00;;;;;;5069219;28;20429;-58
2023/01/05 08:25:03;;;;;;;5.50;1.00;;;11.20;99.90;;;;;;5067182;28;20817;-54
2023/01/05 08:27:29;;;;;;;5.07;0.80;;;11.20;99.90;;;;;;5065115;28;20390;-54
2023/01/05 08:29:55;;;;;;;5.67;0.60;;;11.30;1.00;;;;;;5068713;28;20383;-54
2023/01/05 08:32:20;;;;;;;8.77;1.00;;;11.30;1.00;;;;;;5069382;28;20387;-53
2023/01/05 08:34:46;;;;;;;10.70;1.20;;;11.20;1.00;;;;;;5049456;28;20419;-54
2023/01/05 08:37:11;;;;;;;10.73;1.48;;;11.10;1.00;;;;;;5066300;28;20396;-54
2023/01/05 08:39:37;;;;;;;6.37;1.00;;;11.10;1.00;;;;;;5065962;28;21168;-53
2023/01/05 08:42:02;;;;;;;6.80;1.00;;;11.10;99.90;;;;;;5068989;28;20436;-54
2023/01/05 08:44:28;;;;;;;6.90;0.80;;;11.20;1.00;;;;;;5068783;28;20387;-54
2023/01/05 08:46:54;;;;;;;8.80;1.27;;;11.20;99.90;;;;;;5048954;28;20406;-53
2023/01/05 08:49:19;;;;;;;6.45;1.10;;;11.10;99.90;;;;;;5063313;28;20404;-54
2023/01/05 08:51:45;;;;;;;4.30;0.63;;;11.10;1.00;;;;;;5055127;28;20395;-54
2023/01/05 08:54:11;;;;;;;6.70;1.17;;;11.10;1.00;;;;;;5065198;28;20478;-54
2023/01/05 08:56:36;;;;;;;6.05;0.88;;;11.20;1.00;;;;;;5068894;28;20853;-53
2023/01/05 08:59:02;;;;;;;5.22;0.88;;;11.10;1.00;;;;;;5069075;28;21164;-53
2023/01/05 09:01:28;;;;;;;7.03;1.10;;;11.20;23.80;;;;;;5072383;28;20410;-55
2023/01/05 09:03:54;;;;;;;5.15;0.98;;;11.10;99.90;;;;;;5070289;28;20799;-54
2023/01/05 09:06:19;;;;;;;5.80;1.03;;;11.10;1.00;;;;;;5075064;28;20410;-53
2023/01/05 09:08:45;;;;;;;6.55;1.73;;;11.10;1.00;;;;;;5082165;28;20403;-53
2023/01/05 09:11:20;;;;;;;8.38;1.15;;;11.20;1.00;;;;;;5064368;28;20402;-54
2023/01/05 09:13:52;;;;;;;9.93;1.20;;;11.20;5.30;;;;;;5072349;28;20384;-53
2023/01/05 09:16:21;;;;;;;5.70;0.90;;;11.10;1.00;;;;;;5073315;28;20848;-53
2023/01/05 09:18:47;;;;;;;5.10;0.70;;;11.10;99.90;;;;;;5072315;28;20423;-53
2023/01/05 09:21:13;;;;;;;7.73;1.50;;;11.20;99.90;;;;;;5073036;28;20419;-53
2023/01/05 09:23:39;;;;;;;4.25;0.63;;;11.10;99.90;;;;;;5066033;28;20902;-57
2023/01/05 09:26:06;;;;;;;6.72;1.00;;;11.00;1.00;;;;;;5071224;28;20435;-54
2023/01/05 09:28:35;;;;;;;6.73;1.00;;;11.10;1.00;;;;;;5072701;28;20387;-53
2023/01/05 09:31:06;;;;;;;7.28;1.50;;;11.10;99.90;;;;;;5071387;28;20419;-53
2023/01/05 09:33:32;;;;;;;9.48;1.90;;;11.30;99.90;;;;;;5072360;28;20387;-53
2023/01/05 09:35:58;;;;;;;5.30;0.70;;;11.40;1.00;;;;;;5072886;28;20473;-54
2023/01/05 09:38:23;;;;;;;7.82;1.02;;;11.30;99.90;;;;;;5069840;28;20389;-53
2023/01/05 09:40:53;;;;;;;7.77;1.13;;;11.20;99.90;;;;;;5051999;28;20917;-53
2023/01/05 09:43:28;;;;;;;10.48;1.30;;;11.20;99.90;;;;;;5062631;28;20898;-53
2023/01/05 09:45:56;;;;;;;5.32;0.73;;;11.20;99.90;;;;;;5072017;28;20422;-53
2023/01/05 09:48:24;;;;;;;6.00;1.00;;;11.20;99.90;;;;;;5063474;28;20401;-53
2023/01/05 09:50:51;;;;;;;5.20;0.90;;;11.10;99.90;;;;;;5065445;28;20376;-53
2023/01/05 09:53:24;;;;;;;6.43;1.10;;;11.20;99.90;;;;;;5071867;28;20853;-53
2023/01/05 09:55:51;;;;;;;7.17;1.33;;;11.10;99.90;;;;;;5067424;28;20388;-54
2023/01/05 09:58:22;;;;;;;5.80;1.00;;;11.10;99.90;;;;;;5070130;28;20432;-53
2023/01/05 10:01:15;;;;;;;9.68;1.15;;;11.10;99.90;;;;;;5063267;28;20492;-53
2023/01/05 10:03:58;;;;;;;8.73;1.58;;;11.10;99.90;;;;;;5070805;28;20471;-58
2023/01/05 10:06:28;;;;;;;8.10;0.98;;;11.10;99.90;;;;;;5078309;28;20444;-53
2023/01/05 10:08:55;;;;;;;8.48;1.20;;;11.00;68.50;;;;;;5091425;28;20378;-53
2023/01/05 10:14:26;;;;;;;10.33;2.00;;;11.10;99.90;;;;;;5065696;28;20735;-53
2023/01/05 10:16:52;;;;;;;11.02;1.30;;;11.20;99.90;;;;;;5054047;28;20389;-53
2023/01/05 10:19:19;;;;;;;12.50;1.90;;;11.30;57.10;;;;;;5051695;28;20901;-53
2023/01/05 10:22:23;;;;;;;5.90;1.00;;;11.10;60.30;;;;;;5051067;28;20389;-54
2023/01/05 10:25:22;;;;;;;11.35;1.48;;;11.20;16.90;;;;;;5058333;28;20376;-55
2023/01/05 10:28:05;;;;;;;9.57;1.17;;;11.30;24.30;;;;;;5069982;28;20412;-52
2023/01/05 10:30:46;;;;;;;6.50;1.00;;;11.30;1.00;;;;;;5068021;28;20383;-53
2023/01/05 10:33:44;;;;;;;9.80;0.93;;;11.20;1.00;;;;;;5070875;28;20912;-53
2023/01/05 10:36:29;;;;;;;8.40;1.30;;;11.40;1.00;;;;;;5075791;28;20535;-54
2023/01/05 10:39:05;;;;;;;11.93;1.60;;;11.50;1.00;;;;;;5090673;28;20382;-53
2023/01/05 10:41:41;;;;;;;10.50;1.50;;;11.40;1.00;;;;;;5091895;28;20447;-53
2023/01/05 10:44:44;;;;;;;10.20;1.48;;;11.40;1.00;;;;;;5072749;28;20378;-53
2023/01/05 10:47:11;;;;;;;6.88;1.10;;;11.40;1.00;;;;;;5075222;28;20519;-55
2023/01/05 10:49:39;;;;;;;9.20;1.20;;;11.50;1.00;;;;;;5071299;28;20399;-54
2023/01/05 10:52:10;;;;;;;9.65;1.20;;;11.40;1.00;;;;;;5064204;28;20494;-54
2023/01/05 10:54:54;;;;;;;6.50;1.30;;;11.40;1.00;;;;;;5055890;28;20886;-53
2023/01/05 10:57:32;;;;;;;11.47;1.40;;;11.40;1.00;;;;;;5050888;28;20381;-53
2023/01/05 11:00:07;;;;;;;8.40;1.00;;;11.50;1.00;;;;;;5049253;28;20385;-54
2023/01/05 11:02:38;;;;;;;9.80;1.40;;;11.50;1.00;;;;;;5050303;28;20373;-53
2023/01/05 11:05:10;;;;;;;6.10;1.10;;;11.50;1.00;;;;;;5050184;28;20393;-53
2023/01/05 11:07:55;;;;;;;11.10;1.40;;;11.60;1.00;;;;;;5084404;28;20434;-56
2023/01/05 11:10:34;;;;;;;9.00;1.70;;;11.60;1.00;;;;;;5073004;28;20411;-53
2023/01/05 11:13:01;;;;;;;13.27;1.60;;;11.60;1.00;;;;;;5089867;28;20394;-52
2023/01/05 11:15:30;;;;;;;11.48;1.20;;;11.60;1.00;;;;;;5070399;28;20391;-54
2023/01/05 11:17:56;;;;;;;7.65;1.33;;;11.60;99.90;;;;;;5069949;28;20399;-53
2023/01/05 11:20:22;;;;;;;13.63;2.00;;;11.60;99.90;;;;;;5070604;28;20372;-56
2023/01/05 11:22:50;;;;;;;7.00;1.20;;;11.60;99.90;;;;;;5068912;28;20914;-53
2023/01/05 11:25:24;;;;;;;6.60;1.10;;;11.50;99.90;;;;;;5070217;28;20770;-54
2023/01/05 11:28:09;;;;;;;6.17;1.40;;;11.30;99.90;;;;;;5069874;28;20388;-55
2023/01/05 11:30:40;;;;;;;8.63;1.20;;;11.60;99.90;;;;;;5070883;28;20418;-53
2023/01/05 11:33:34;;;;;;;7.25;1.10;;;11.60;99.90;;;;;;5069827;28;20401;-54
2023/01/05 11:36:01;;;;;;;13.45;1.35;;;11.60;99.90;;;;;;5070283;28;20414;-54
2023/01/05 11:38:29;;;;;;;9.13;1.40;;;11.70;99.90;;;;;;5090750;28;20413;-54
2023/01/05 11:40:56;;;;;;;8.87;1.80;;;11.80;99.90;;;;;;5089947;28;20401;-54
2023/01/05 11:43:25;;;;;;;9.23;1.20;;;11.70;99.90;;;;;;5090427;28;20515;-54
2023/01/05 11:45:53;;;;;;;10.95;1.83;;;11.60;99.90;;;;;;5089629;28;20406;-54
2023/01/05 11:48:26;;;;;;;7.75;1.20;;;11.70;99.90;;;;;;5090440;28;20417;-54
2023/01/05 11:50:55;;;;;;;14.20;1.77;;;11.80;99.90;;;;;;5089637;28;20381;-54
2023/01/05 11:53:23;;;;;;;12.68;2.30;;;11.80;99.90;;;;;;5089560;28;20855;-51
2023/01/05 11:56:17;;;;;;;6.72;1.10;;;11.80;99.90;;;;;;5089413;28;20466;-52
2023/01/05 11:58:45;;;;;;;10.77;1.90;;;11.70;99.90;;;;;;5089883;28;20878;-58
2023/01/05 12:01:32;;;;;;;7.80;1.63;;;11.80;99.90;;;;;;5090358;28;20378;-55
2023/01/05 12:04:20;;;;;;;13.27;1.50;;;11.80;99.90;;;;;;5089638;28;20894;-54
2023/01/05 12:07:07;;;;;;;11.45;1.50;;;11.70;99.90;;;;;;5089534;28;20894;-54
2023/01/05 12:09:40;;;;;;;8.80;1.90;;;11.60;99.90;;;;;;5085689;28;20382;-54
2023/01/05 12:12:39;;;;;;;8.45;1.48;;;11.60;99.90;;;;;;5066642;28;20478;-54
2023/01/05 12:15:26;;;;;;;8.82;1.50;;;11.50;99.90;;;;;;5064976;28;20937;-54
2023/01/05 12:18:21;;;;;;;9.07;2.20;;;11.50;99.90;;;;;;5067385;28;21191;-54
2023/01/05 12:21:12;;;;;;;9.50;1.60;;;11.50;99.90;;;;;;5058025;28;20396;-53
2023/01/05 12:23:52;;;;;;;11.55;1.90;;;11.40;99.90;;;;;;5061200;28;20388;-54
2023/01/05 12:26:26;;;;;;;8.63;1.38;;;11.50;99.90;;;;;;5064184;28;20442;-53
2023/01/05 12:29:23;;;;;;;8.38;1.63;;;11.50;99.90;;;;;;5057684;28;20720;-54
2023/01/05 12:32:22;;;;;;;11.52;1.90;;;11.50;99.90;;;;;;5066887;28;20445;-53
2023/01/05 12:35:15;;;;;;;7.00;1.60;;;11.30;99.90;;;;;;5059225;28;20412;-54
2023/01/05 12:37:43;;;;;;;11.43;1.40;;;11.40;99.90;;;;;;5084364;28;20397;-59
2023/01/05 12:40:35;;;;;;;10.82;1.85;;;11.40;99.90;;;;;;5089247;28;20743;-55
2023/01/05 12:43:07;;;;;;;11.63;2.00;;;11.40;99.90;;;;;;5076729;28;21046;-53
2023/01/05 12:46:00;;;;;;;8.10;1.70;;;11.30;99.90;;;;;;5062674;28;20734;-53
2023/01/05 12:48:34;;;;;;;6.53;1.70;;;11.30;99.90;;;;;;5010556;28;20953;-54
2023/01/05 12:51:03;;;;;;;7.00;1.10;;;11.30;99.90;;;;;;5060950;28;20372;-54
2023/01/05 12:53:34;;;;;;;8.65;1.38;;;11.20;99.90;;;;;;5069462;28;20446;-54
2023/01/05 12:56:10;;;;;;;7.63;1.13;;;11.40;99.90;;;;;;5067429;28;20740;-54
2023/01/05 12:58:39;;;;;;;10.05;1.20;;;11.40;99.90;;;;;;5049645;28;20381;-53
2023/01/05 13:01:15;;;;;;;7.72;1.50;;;11.40;99.90;;;;;;5052177;28;20397;-53
2023/01/05 13:03:47;;;;;;;11.38;1.90;;;11.40;99.90;;;;;;5055201;28;20373;-58
2023/01/05 13:06:19;;;;;;;11.77;2.20;;;11.30;99.90;;;;;;5059200;28;20439;-53
2023/01/05 13:08:58;;;;;;;7.32;1.30;;;11.40;99.90;;;;;;5088554;28;20475;-58
2023/01/05 13:11:35;;;;;;;12.27;2.55;;;11.40;99.90;;;;;;5089563;28;20369;-53
2023/01/05 13:14:09;;;;;;;7.75;1.63;;;11.50;99.90;;;;;;5079379;28;20506;-54
2023/01/05 13:16:41;;;;;;;10.05;1.63;;;11.50;99.90;;;;;;5069555;28;20501;-53
2023/01/05 13:19:33;;;;;;;9.23;2.10;;;11.40;99.90;;;;;;5068631;28;20380;-53
2023/01/05 13:22:03;;;;;;;9.48;2.40;;;11.40;99.90;;;;;;5062073;28;20416;-53
2023/01/05 13:24:54;;;;;;;10.65;1.60;;;11.40;99.90;;;;;;5055465;28;20378;-53
2023/01/05 13:27:19;;;;;;;13.33;1.90;;;11.50;99.90;;;;;;5049359;28;20431;-53
2023/01/05 13:29:53;;;;;;;12.07;1.90;;;11.50;99.90;;;;;;5030347;28;20758;-58
2023/01/05 13:32:34;;;;;;;10.35;1.60;;;11.50;99.90;;;;;;5049206;28;20382;-53
2023/01/05 13:35:40;;;;;;;6.60;1.65;;;11.40;99.90;;;;;;5047945;28;20421;-53
2023/01/05 13:38:24;;;;;;;9.50;1.55;;;11.40;99.90;;;;;;5047213;28;20416;-54
2023/01/05 13:41:00;;;;;;;8.00;1.10;;;11.40;99.90;;;;;;5067415;28;20376;-54
2023/01/05 13:43:58;;;;;;;11.57;2.13;;;11.40;99.90;;;;;;5062136;28;20439;-53